This is the latest recevied weather packets stored in our database for station/object WA1OUI. If no packets are shown the sender has not sent any weather packets the latest 10 day(s).
| Time | Temp. | Humidity | Pressure | Rain* | Wind** | Luminosity | Snow |
|---|---|---|---|---|---|---|---|
| 1777499564 | 16.67° C | 53% | 1009.5 hPa | 0 mm | - | 82 W/m² | - |
| 1777499263 | 16.67° C | 50% | 1009.8 hPa | 0 mm | - | 86 W/m² | - |
| 1777498960 | 17.22° C | 51% | 1009.4 hPa | 0 mm | - | 95 W/m² | - |
| 1777498656 | 17.22° C | 50% | 1009.4 hPa | 0 mm | - | 102 W/m² | - |
| 1777498352 | 17.22° C | 50% | 1009.3 hPa | 0 mm | - | 110 W/m² | - |
| 1777498050 | 17.22° C | 50% | 1009.2 hPa | 0 mm | - | 120 W/m² | - |
| 1777497746 | 17.22° C | 50% | 1009.3 hPa | 0 mm | - | 116 W/m² | - |
| 1777497444 | 17.22° C | 49% | 1009.4 hPa | 0 mm | - | 112 W/m² | - |
| 1777497139 | 17.22° C | 50% | 1009.4 hPa | 0 mm | - | 108 W/m² | - |
| 1777496836 | 17.22° C | 48% | 1009.6 hPa | 0 mm | - | 107 W/m² | - |
| 1777496533 | 17.78° C | 49% | 1009.6 hPa | 0 mm | - | 114 W/m² | - |
| 1777496229 | 17.78° C | 49% | 1009.6 hPa | 0 mm | - | 120 W/m² | - |
| 1777495925 | 17.78° C | 49% | 1009.8 hPa | 0 mm | - | 123 W/m² | - |
| 1777495621 | 17.78° C | 51% | 1009.6 hPa | 0 mm | - | 128 W/m² | - |
| 1777495317 | 17.78° C | 50% | 1009.8 hPa | 0 mm | - | 139 W/m² | - |
| 1777495015 | 17.78° C | 51% | 1010.1 hPa | 0 mm | - | 134 W/m² | - |
| 1777494712 | 17.78° C | 51% | 1009.9 hPa | 0 mm | - | 126 W/m² | - |
| 1777494409 | 17.78° C | 50% | 1010.1 hPa | 0 mm | - | 110 W/m² | - |
| 1777494105 | 18.33° C | 49% | 1010.2 hPa | 0 mm | - | 112 W/m² | - |
| 1777493803 | 18.33° C | 50% | 1009.9 hPa | 0 mm | - | 124 W/m² | - |
| 1777493501 | 18.89° C | 47% | 1010.1 hPa | 0 mm | - | 136 W/m² | - |
| 1777493197 | 18.89° C | 46% | 1010.1 hPa | 0 mm | - | 170 W/m² | - |
| 1777492894 | 19.44° C | 45% | 1010.1 hPa | 0 mm | - | 217 W/m² | - |
| 1777492591 | 19.44° C | 45% | 1010.1 hPa | 0 mm | - | 414 W/m² | - |
| 1777492286 | 18.89° C | 47% | 1010.1 hPa | 0 mm | - | 391 W/m² | - |
* Rain latest hour (hover to see other rain measurements)
** Current wind speed in m/s (hover to see current wind gust speed)